Time;durP1;ratioP1;P1;durP2;ratioP2;P2;SDS_P1;SDS_P2;PMS_P1;PMS_P2;Temp;Humidity;BMP_temperature;BMP_pressure;BME280_temperature;BME280_humidity;BME280_pressure;Samples;Min_cycle;Max_cycle;Signal;HPM_P1;HPM_P2
2023/07/03 00:00:33;;;;;;;6.18;3.47;;;15.40;99.90;;;;;;5014644;28;20198;-84
2023/07/03 00:02:59;;;;;;;6.38;3.40;;;15.50;99.90;;;;;;5014626;28;20638;-85
2023/07/03 00:05:25;;;;;;;8.60;3.72;;;15.50;99.90;;;;;;5014394;28;20555;-84
2023/07/03 00:07:51;;;;;;;6.53;3.65;;;15.50;99.90;;;;;;5013668;28;20214;-85
2023/07/03 00:10:17;;;;;;;9.60;3.70;;;15.50;99.90;;;;;;5014547;28;20176;-84
2023/07/03 00:12:47;;;;;;;8.60;3.72;;;15.50;99.90;;;;;;5015498;28;20183;-84
2023/07/03 00:15:13;;;;;;;6.53;3.63;;;15.50;99.90;;;;;;5014767;28;20167;-85
2023/07/03 00:17:44;;;;;;;7.13;3.38;;;15.50;99.90;;;;;;5014441;28;20211;-86
2023/07/03 00:20:15;;;;;;;8.48;3.60;;;15.50;99.90;;;;;;5014060;28;20273;-85
2023/07/03 00:22:42;;;;;;;7.38;3.33;;;15.50;99.90;;;;;;5014022;28;20661;-83
2023/07/03 00:25:08;;;;;;;6.30;3.55;;;15.50;99.90;;;;;;5013992;28;20175;-83
2023/07/03 00:27:34;;;;;;;13.48;3.70;;;15.50;99.90;;;;;;5014277;28;20187;-85
2023/07/03 00:29:59;;;;;;;8.25;3.90;;;15.50;99.90;;;;;;5015505;28;20176;-85
2023/07/03 00:32:28;;;;;;;7.57;3.65;;;15.50;99.90;;;;;;5014297;28;20186;-85
2023/07/03 00:34:55;;;;;;;8.13;3.67;;;15.50;99.90;;;;;;5013850;28;20607;-86
2023/07/03 00:37:23;;;;;;;7.30;3.83;;;15.50;99.90;;;;;;5014026;28;20615;-85
2023/07/03 00:39:49;;;;;;;8.02;3.30;;;15.60;99.90;;;;;;5014001;28;20183;-83
2023/07/03 00:42:15;;;;;;;7.97;3.50;;;15.50;99.90;;;;;;5014215;28;20183;-83
2023/07/03 00:44:41;;;;;;;9.32;4.20;;;15.50;99.90;;;;;;5014206;28;20172;-84
2023/07/03 00:47:10;;;;;;;9.13;3.60;;;15.50;99.90;;;;;;5013989;28;20625;-85
2023/07/03 00:49:39;;;;;;;10.25;4.15;;;15.50;99.90;;;;;;5013594;28;20322;-91
2023/07/03 00:52:06;;;;;;;8.55;3.83;;;15.60;99.90;;;;;;5013789;28;20175;-87
2023/07/03 00:54:31;;;;;;;9.60;3.25;;;15.60;99.90;;;;;;5013924;28;20175;-91
2023/07/03 00:56:57;;;;;;;10.57;4.00;;;15.60;99.90;;;;;;5014341;28;20226;-85
2023/07/03 00:59:23;;;;;;;6.28;3.58;;;15.60;99.90;;;;;;5013756;28;20217;-83
2023/07/03 01:02:16;;;;;;;7.40;3.40;;;15.60;99.90;;;;;;5014353;28;20182;-84
2023/07/03 01:04:59;;;;;;;6.88;3.40;;;15.60;99.90;;;;;;5013901;28;20167;-84
2023/07/03 01:07:29;;;;;;;9.20;3.72;;;15.60;99.90;;;;;;5014175;28;20171;-85
2023/07/03 01:10:19;;;;;;;8.30;3.30;;;15.50;99.90;;;;;;5013950;28;20175;-87
2023/07/03 01:12:50;;;;;;;9.48;3.72;;;15.50;99.90;;;;;;5013639;28;20167;-85
2023/07/03 01:15:24;;;;;;;6.15;3.40;;;15.50;99.90;;;;;;5013447;28;20167;-84
2023/07/03 01:17:53;;;;;;;12.05;3.58;;;15.50;99.90;;;;;;5014511;28;20273;-83
2023/07/03 01:20:22;;;;;;;8.93;3.83;;;15.50;99.90;;;;;;5014545;28;20175;-85
2023/07/03 01:23:00;;;;;;;8.45;3.40;;;15.40;99.90;;;;;;5014139;28;20175;-84
2023/07/03 01:25:27;;;;;;;10.13;3.30;;;15.50;99.90;;;;;;5014484;28;20199;-85
2023/07/03 01:30:29;;;;;;;8.88;4.22;;;15.50;99.90;;;;;;5208712;23;20237;-87
2023/07/03 01:32:56;;;;;;;7.18;3.08;;;15.40;99.90;;;;;;5033698;28;20163;-86
2023/07/03 01:35:23;;;;;;;5.40;3.22;;;15.50;99.90;;;;;;5016095;28;20179;-86
2023/07/03 01:37:52;;;;;;;8.57;3.95;;;15.40;99.90;;;;;;5033537;28;20202;-85
2023/07/03 01:40:21;;;;;;;11.45;3.80;;;15.40;99.90;;;;;;5015796;28;20182;-86
2023/07/03 01:42:47;;;;;;;9.02;3.92;;;15.40;99.90;;;;;;5033196;28;20178;-86
2023/07/03 01:45:14;;;;;;;9.80;3.85;;;15.40;99.90;;;;;;5015849;28;20558;-86
2023/07/03 01:47:39;;;;;;;8.90;3.78;;;15.40;99.90;;;;;;5015722;28;20297;-86
2023/07/03 01:50:13;;;;;;;6.97;3.72;;;15.40;99.90;;;;;;5015840;28;20194;-86
2023/07/03 01:52:43;;;;;;;10.23;4.18;;;15.40;99.90;;;;;;5033441;28;20167;-85
2023/07/03 01:55:15;;;;;;;10.85;3.83;;;15.40;99.90;;;;;;5033561;28;20254;-85
2023/07/03 01:57:52;;;;;;;6.25;3.40;;;15.40;99.90;;;;;;5015408;28;20202;-87
2023/07/03 02:00:32;;;;;;;8.00;3.80;;;15.40;99.90;;;;;;5015321;28;20171;-86
2023/07/03 02:03:01;;;;;;;11.25;4.38;;;15.30;99.90;;;;;;5015688;28;20198;-87
2023/07/03 02:05:30;;;;;;;10.10;4.25;;;15.30;99.90;;;;;;5015561;28;20237;-84
2023/07/03 02:07:59;;;;;;;9.07;4.13;;;15.30;99.90;;;;;;5015795;28;20174;-87
2023/07/03 02:10:25;;;;;;;9.85;3.92;;;15.40;99.90;;;;;;5015583;28;20186;-85
2023/07/03 02:12:51;;;;;;;10.07;3.95;;;15.30;99.90;;;;;;5018032;28;20174;-88
2023/07/03 02:15:17;;;;;;;10.82;4.30;;;15.30;99.90;;;;;;5019973;28;20209;-87
2023/07/03 02:17:43;;;;;;;20.65;4.53;;;15.30;99.90;;;;;;5036977;28;20232;-87
2023/07/03 02:20:14;;;;;;;8.63;4.20;;;15.30;99.90;;;;;;5019305;28;20181;-85
2023/07/03 02:22:41;;;;;;;11.20;4.28;;;15.30;99.90;;;;;;5019414;28;20514;-87
2023/07/03 02:25:07;;;;;;;10.32;4.15;;;15.30;99.90;;;;;;5019233;28;20189;-87
2023/07/03 02:27:33;;;;;;;10.63;4.03;;;15.30;99.90;;;;;;5019347;28;20201;-86
2023/07/03 02:29:59;;;;;;;8.75;3.53;;;15.30;99.90;;;;;;5015933;28;20669;-87
2023/07/03 02:32:38;;;;;;;8.38;4.07;;;15.30;99.90;;;;;;5015914;28;20610;-87
2023/07/03 02:35:05;;;;;;;12.40;4.10;;;15.30;99.90;;;;;;5017177;28;20185;-88
2023/07/03 02:37:31;;;;;;;8.02;3.65;;;15.30;99.90;;;;;;5015684;28;20199;-87
2023/07/03 02:39:56;;;;;;;10.90;3.83;;;15.30;99.90;;;;;;5015723;28;20215;-86
2023/07/03 02:42:22;;;;;;;11.98;4.82;;;15.30;99.90;;;;;;5015847;28;20219;-86
2023/07/03 02:44:48;;;;;;;12.23;4.50;;;15.30;99.90;;;;;;5015704;28;20167;-87
2023/07/03 02:47:14;;;;;;;14.48;4.53;;;15.30;99.90;;;;;;5015679;28;20599;-89
2023/07/03 02:49:40;;;;;;;10.63;4.22;;;15.30;99.90;;;;;;5015820;28;20183;-87
2023/07/03 02:52:06;;;;;;;9.57;4.10;;;15.30;99.90;;;;;;5016949;28;20205;-89
2023/07/03 02:54:32;;;;;;;8.65;3.92;;;15.30;99.90;;;;;;5017024;28;20171;-89
2023/07/03 02:56:58;;;;;;;12.32;4.90;;;15.40;99.90;;;;;;5015302;28;20249;-87
2023/07/03 02:59:23;;;;;;;9.80;4.15;;;15.40;99.90;;;;;;5015669;28;20526;-89
2023/07/03 03:01:49;;;;;;;9.57;4.30;;;15.40;99.90;;;;;;5015680;28;20186;-89
2023/07/03 03:04:16;;;;;;;8.55;4.20;;;15.40;99.90;;;;;;5015705;28;20175;-88
2023/07/03 03:06:43;;;;;;;12.07;4.57;;;15.50;99.90;;;;;;5016846;28;20175;-85
2023/07/03 03:09:09;;;;;;;10.25;4.43;;;15.50;99.90;;;;;;5016416;28;20254;-89
2023/07/03 03:11:35;;;;;;;14.13;4.68;;;15.50;99.90;;;;;;5016540;28;20263;-87
2023/07/03 03:14:01;;;;;;;12.50;4.00;;;15.50;99.90;;;;;;5015145;28;20179;-87
2023/07/03 03:16:27;;;;;;;9.50;4.05;;;15.50;99.90;;;;;;5015143;28;20187;-88
2023/07/03 03:18:53;;;;;;;12.18;4.18;;;15.50;99.90;;;;;;4998780;28;20230;-85
2023/07/03 03:21:19;;;;;;;10.05;4.50;;;15.50;99.90;;;;;;5015036;28;20179;-87
2023/07/03 03:23:46;;;;;;;9.80;4.50;;;15.50;99.90;;;;;;5014724;28;20190;-86
2023/07/03 03:26:11;;;;;;;10.27;4.70;;;15.50;99.90;;;;;;5016226;28;20522;-87
2023/07/03 03:28:37;;;;;;;10.77;4.43;;;15.50;99.90;;;;;;4999543;28;20639;-89
2023/07/03 03:31:03;;;;;;;11.57;4.65;;;15.40;99.90;;;;;;5018429;28;20181;-88
2023/07/03 03:33:29;;;;;;;14.07;4.45;;;15.40;99.90;;;;;;5018300;28;20175;-88
2023/07/03 03:35:54;;;;;;;9.57;4.32;;;15.30;99.90;;;;;;5018107;28;20182;-88
2023/07/03 03:38:20;;;;;;;11.30;4.32;;;15.30;99.90;;;;;;5018151;28;20210;-87
2023/07/03 03:41:06;;;;;;;9.43;4.15;;;15.30;99.90;;;;;;5018232;28;20170;-89
2023/07/03 03:43:32;;;;;;;13.68;4.85;;;15.30;99.90;;;;;;5017333;28;20189;-86
2023/07/03 03:46:00;;;;;;;9.52;4.30;;;15.30;99.90;;;;;;5018261;28;20194;-88
2023/07/03 03:48:28;;;;;;;11.05;4.22;;;15.30;99.90;;;;;;5017896;28;20266;-88
2023/07/03 03:50:55;;;;;;;12.88;4.53;;;15.30;99.90;;;;;;5017780;28;20525;-88
2023/07/03 03:53:22;;;;;;;11.45;4.47;;;15.30;99.90;;;;;;5017602;28;20178;-89
2023/07/03 03:55:49;;;;;;;12.15;4.65;;;15.30;99.90;;;;;;5017503;28;20237;-87
2023/07/03 03:58:16;;;;;;;11.60;5.03;;;15.30;99.90;;;;;;5017761;28;20210;-87
2023/07/03 04:00:42;;;;;;;9.68;4.22;;;15.30;99.90;;;;;;5017677;28;20190;-90
2023/07/03 04:03:08;;;;;;;11.27;4.63;;;15.30;99.90;;;;;;5017383;28;20210;-87
2023/07/03 04:05:34;;;;;;;15.68;5.30;;;15.30;99.90;;;;;;5017818;28;20197;-90
2023/07/03 04:07:59;;;;;;;13.10;4.68;;;15.30;99.90;;;;;;5017479;28;20617;-87
2023/07/03 04:10:25;;;;;;;8.82;4.30;;;15.30;99.90;;;;;;5017378;28;20297;-88
2023/07/03 04:12:51;;;;;;;8.80;4.45;;;15.30;99.90;;;;;;5017529;28;20513;-92
2023/07/03 04:15:17;;;;;;;13.32;4.85;;;15.40;99.90;;;;;;5035362;28;20174;-91
2023/07/03 04:17:43;;;;;;;14.90;5.13;;;15.40;99.90;;;;;;5017548;28;20218;-88
2023/07/03 04:20:15;;;;;;;11.35;5.22;;;15.40;99.90;;;;;;5017417;28;20170;-88
2023/07/03 04:22:41;;;;;;;12.38;4.60;;;15.40;99.90;;;;;;5016868;28;20258;-88
2023/07/03 04:25:08;;;;;;;10.77;4.68;;;15.40;99.90;;;;;;5017183;28;20213;-89
2023/07/03 04:27:35;;;;;;;12.98;4.30;;;15.50;99.90;;;;;;5034751;28;20193;-93
2023/07/03 04:30:02;;;;;;;13.13;5.15;;;15.50;99.90;;;;;;5016873;28;20365;-89
2023/07/03 04:32:28;;;;;;;11.07;5.18;;;15.50;99.90;;;;;;5017264;28;20182;-88
2023/07/03 04:34:54;;;;;;;11.57;4.47;;;15.50;99.90;;;;;;5016566;28;20265;-88
2023/07/03 04:37:19;;;;;;;12.95;4.70;;;15.50;99.90;;;;;;5031148;28;20602;-89
2023/07/03 04:39:45;;;;;;;14.65;4.80;;;15.50;99.90;;;;;;5017054;28;20190;-87
2023/07/03 04:42:13;;;;;;;11.82;4.35;;;15.50;99.90;;;;;;5017021;28;20171;-87
2023/07/03 04:44:43;;;;;;;12.38;4.63;;;15.50;99.90;;;;;;5016910;28;20170;-89
2023/07/03 04:47:16;;;;;;;14.32;4.72;;;15.60;99.90;;;;;;5002487;28;20179;-88
2023/07/03 04:49:45;;;;;;;9.93;4.30;;;15.50;99.90;;;;;;4997179;28;20179;-87
2023/07/03 04:52:16;;;;;;;13.35;4.93;;;15.60;99.90;;;;;;4996953;28;20226;-88
2023/07/03 04:54:43;;;;;;;11.23;4.90;;;15.60;99.90;;;;;;4997014;28;20203;-91
2023/07/03 04:57:08;;;;;;;14.10;5.18;;;15.60;99.90;;;;;;4996667;28;20207;-87
2023/07/03 04:59:36;;;;;;;11.90;5.00;;;15.60;99.90;;;;;;5029294;28;20232;-89
2023/07/03 05:02:01;;;;;;;15.55;4.82;;;15.60;99.90;;;;;;5016671;28;20178;-90
2023/07/03 05:04:27;;;;;;;18.15;4.88;;;15.60;99.90;;;;;;5016804;28;20190;-90
2023/07/03 05:06:53;;;;;;;13.88;4.85;;;15.60;99.90;;;;;;5016729;28;20249;-90
2023/07/03 05:09:19;;;;;;;13.10;4.82;;;15.70;99.90;;;;;;5034139;28;20170;-87
2023/07/03 05:11:44;;;;;;;11.07;5.13;;;15.80;99.90;;;;;;5016349;28;20514;-87
2023/07/03 05:14:10;;;;;;;15.70;5.03;;;15.80;99.90;;;;;;5016590;28;20224;-90
2023/07/03 05:16:36;;;;;;;15.25;5.03;;;15.90;99.90;;;;;;5034193;28;20178;-88
2023/07/03 05:19:02;;;;;;;14.98;4.88;;;15.90;99.90;;;;;;5016629;28;20190;-87
2023/07/03 05:21:28;;;;;;;15.63;4.90;;;15.90;99.90;;;;;;5016740;28;20635;-88
2023/07/03 05:23:54;;;;;;;12.27;4.78;;;15.90;99.90;;;;;;5034346;28;20175;-90
2023/07/03 05:26:19;;;;;;;11.57;4.95;;;15.90;99.90;;;;;;5016272;28;20174;-87
2023/07/03 05:28:45;;;;;;;14.40;4.93;;;15.90;99.90;;;;;;5033923;28;20224;-85
2023/07/03 05:31:10;;;;;;;9.45;4.13;;;15.90;99.90;;;;;;5016325;28;20564;-89
2023/07/03 05:33:36;;;;;;;11.57;4.75;;;15.90;99.90;;;;;;5016074;28;20580;-85
2023/07/03 05:36:02;;;;;;;12.57;4.57;;;15.80;99.90;;;;;;5034490;28;20589;-87
2023/07/03 05:38:29;;;;;;;13.95;4.90;;;15.90;99.90;;;;;;5016314;28;20210;-87
2023/07/03 05:40:55;;;;;;;10.77;4.28;;;15.90;99.90;;;;;;5015889;28;20616;-88
2023/07/03 05:43:21;;;;;;;13.13;4.63;;;16.00;99.90;;;;;;5016079;28;20189;-87
2023/07/03 05:45:48;;;;;;;12.32;4.63;;;16.20;99.90;;;;;;5016852;28;20178;-86
2023/07/03 05:48:15;;;;;;;13.32;4.32;;;16.20;99.90;;;;;;5020147;28;20269;-91
2023/07/03 05:50:40;;;;;;;15.65;4.63;;;16.30;99.90;;;;;;5020359;28;20659;-91
2023/07/03 05:53:07;;;;;;;10.98;4.15;;;16.30;99.90;;;;;;5020217;28;20182;-86
2023/07/03 05:55:33;;;;;;;14.65;4.57;;;16.30;99.90;;;;;;5020091;28;20546;-88
2023/07/03 05:57:59;;;;;;;14.93;4.40;;;16.30;99.90;;;;;;5019944;28;20229;-87
2023/07/03 06:00:25;;;;;;;11.70;4.32;;;16.20;99.90;;;;;;5019868;28;20518;-89
2023/07/03 06:02:51;;;;;;;14.00;4.22;;;16.20;99.90;;;;;;5019698;28;20205;-84
2023/07/03 06:05:18;;;;;;;11.18;4.55;;;16.20;99.90;;;;;;5020056;28;20182;-88
2023/07/03 06:07:43;;;;;;;14.55;4.60;;;16.30;99.90;;;;;;5037341;28;20185;-89
2023/07/03 06:10:10;;;;;;;10.98;4.38;;;16.40;99.90;;;;;;5019723;28;20170;-85
2023/07/03 06:12:36;;;;;;;11.63;4.57;;;16.40;99.90;;;;;;5037470;28;20210;-86
2023/07/03 06:15:02;;;;;;;11.05;3.55;;;16.40;99.90;;;;;;5020001;28;20252;-86
2023/07/03 06:17:29;;;;;;;13.52;4.45;;;16.40;99.90;;;;;;5019547;28;20702;-87
2023/07/03 06:19:55;;;;;;;11.35;4.43;;;16.50;99.90;;;;;;5037137;28;20178;-85
2023/07/03 06:22:21;;;;;;;13.48;4.05;;;16.50;99.90;;;;;;5019415;28;20201;-87
2023/07/03 06:24:47;;;;;;;16.15;4.30;;;16.50;99.90;;;;;;5019343;28;20568;-86
2023/07/03 06:27:14;;;;;;;13.68;4.10;;;16.40;99.90;;;;;;5037116;28;20158;-89
2023/07/03 06:29:40;;;;;;;16.42;4.22;;;16.50;99.90;;;;;;5019069;28;20688;-87
2023/07/03 06:32:08;;;;;;;14.02;3.53;;;16.60;99.90;;;;;;5018886;28;20179;-86
2023/07/03 06:34:35;;;;;;;16.25;4.68;;;16.70;99.90;;;;;;5036931;28;20182;-88
2023/07/03 06:37:05;;;;;;;15.13;4.13;;;16.70;99.90;;;;;;5019085;28;20643;-88
2023/07/03 06:39:36;;;;;;;14.02;4.40;;;16.90;99.90;;;;;;5019017;28;20186;-88
2023/07/03 06:42:02;;;;;;;12.18;4.15;;;16.90;99.90;;;;;;5019402;28;20676;-89
2023/07/03 06:44:28;;;;;;;14.80;4.10;;;17.00;99.90;;;;;;5018942;28;20178;-88
2023/07/03 06:46:54;;;;;;;15.05;4.18;;;17.00;99.90;;;;;;5019099;28;20171;-87
2023/07/03 06:49:24;;;;;;;14.02;4.07;;;17.00;99.90;;;;;;5036735;28;20185;-86
2023/07/03 06:51:53;;;;;;;11.40;3.83;;;17.10;99.90;;;;;;5018757;28;20175;-88
2023/07/03 06:54:19;;;;;;;20.85;4.38;;;17.00;99.90;;;;;;5018971;28;20285;-87
2023/07/03 06:56:44;;;;;;;17.08;4.57;;;17.10;99.90;;;;;;5018788;28;20625;-87
2023/07/03 06:59:10;;;;;;;14.90;4.35;;;17.10;99.90;;;;;;5017794;28;20269;-87
2023/07/03 07:01:36;;;;;;;13.13;4.18;;;17.20;99.90;;;;;;5018790;28;20175;-88
2023/07/03 07:04:02;;;;;;;12.43;3.97;;;17.30;99.90;;;;;;5018925;28;20635;-88
2023/07/03 07:06:30;;;;;;;15.00;4.38;;;17.40;99.90;;;;;;5018903;28;20183;-89
2023/07/03 07:08:56;;;;;;;14.90;3.72;;;17.50;99.90;;;;;;5018719;28;20186;-89
2023/07/03 07:11:27;;;;;;;13.73;4.15;;;17.60;99.90;;;;;;5036326;28;20532;-88
2023/07/03 07:13:54;;;;;;;15.77;3.58;;;17.80;99.90;;;;;;5018452;28;20622;-88
2023/07/03 07:16:25;;;;;;;14.70;3.92;;;18.00;99.90;;;;;;5036995;28;20220;-89
2023/07/03 07:18:54;;;;;;;15.63;4.10;;;18.20;99.90;;;;;;5020973;28;20682;-91
2023/07/03 07:21:20;;;;;;;13.18;3.65;;;18.30;99.90;;;;;;5019944;28;20511;-96
2023/07/03 07:23:57;;;;;;;14.25;4.00;;;18.30;99.90;;;;;;5020772;28;20269;-94
2023/07/03 07:26:27;;;;;;;14.45;4.10;;;18.40;99.90;;;;;;5019816;28;20178;-93
2023/07/03 07:28:53;;;;;;;14.50;3.83;;;18.20;99.90;;;;;;5020089;28;20218;-95
2023/07/03 07:31:21;;;;;;;14.20;3.88;;;18.30;99.90;;;;;;5020734;28;20174;-96
2023/07/03 07:33:47;;;;;;;14.63;3.38;;;18.30;99.90;;;;;;5021013;28;20182;-93
2023/07/03 07:36:14;;;;;;;15.60;4.15;;;18.30;99.90;;;;;;5021655;28;20636;-94
2023/07/03 07:38:40;;;;;;;14.82;3.63;;;18.40;99.90;;;;;;5019101;28;20221;-94
2023/07/03 07:41:06;;;;;;;13.50;4.18;;;18.50;99.90;;;;;;5019412;28;20205;-96
2023/07/03 07:43:33;;;;;;;15.52;3.47;;;18.60;99.90;;;;;;5019062;28;20210;-93
2023/07/03 07:45:58;;;;;;;13.80;3.75;;;18.60;99.90;;;;;;5018999;28;20186;-93
2023/07/03 07:48:26;;;;;;;16.75;4.00;;;18.60;99.90;;;;;;5020354;28;20174;-96
2023/07/03 07:50:52;;;;;;;16.52;4.15;;;18.60;99.90;;;;;;5019285;28;20238;-95
2023/07/03 07:53:17;;;;;;;14.18;4.03;;;18.50;99.90;;;;;;5020392;28;20268;-93
2023/07/03 07:55:43;;;;;;;11.38;3.70;;;18.50;99.90;;;;;;5018534;28;20545;-93
2023/07/03 07:58:09;;;;;;;14.05;3.50;;;18.70;99.90;;;;;;5019390;28;20214;-96
2023/07/03 08:00:34;;;;;;;12.68;3.40;;;18.80;99.90;;;;;;5021652;28;20210;-96
2023/07/03 08:03:00;;;;;;;15.90;4.03;;;18.60;99.90;;;;;;5018923;28;20601;-94
2023/07/03 08:05:26;;;;;;;13.77;3.75;;;18.60;99.90;;;;;;5019241;28;20171;-93
2023/07/03 08:07:52;;;;;;;15.93;3.58;;;18.60;99.90;;;;;;5018749;28;20636;-90
2023/07/03 08:10:19;;;;;;;14.38;4.10;;;18.60;99.90;;;;;;5018468;28;20261;-92
2023/07/03 08:12:45;;;;;;;14.10;3.72;;;18.50;99.90;;;;;;5019253;28;20182;-96
2023/07/03 08:15:11;;;;;;;15.73;4.35;;;18.60;99.90;;;;;;5019898;28;20175;-95
2023/07/03 08:17:37;;;;;;;16.50;3.97;;;18.40;99.90;;;;;;5019405;28;20233;-96
2023/07/03 08:20:08;;;;;;;22.73;4.25;;;18.30;99.90;;;;;;5018786;28;20190;-94
2023/07/03 08:22:33;;;;;;;15.13;3.75;;;18.30;99.90;;;;;;5019214;28;20181;-95
2023/07/03 08:25:00;;;;;;;17.55;4.32;;;18.30;99.90;;;;;;5018404;28;20175;-95
2023/07/03 08:27:26;;;;;;;12.93;3.67;;;18.50;99.90;;;;;;5018133;28;20181;-89
2023/07/03 08:29:51;;;;;;;13.95;3.75;;;18.50;99.90;;;;;;5014186;28;20661;-92
2023/07/03 08:32:17;;;;;;;12.85;3.50;;;18.60;99.90;;;;;;5014421;28;20190;-92
2023/07/03 08:34:43;;;;;;;15.07;3.60;;;18.60;99.90;;;;;;5014514;28;20179;-94
2023/07/03 08:37:08;;;;;;;14.50;3.83;;;18.60;99.90;;;;;;5014616;28;20199;-92
2023/07/03 08:39:38;;;;;;;14.95;3.95;;;18.60;99.90;;;;;;5014266;28;20191;-93
2023/07/03 08:42:23;;;;;;;12.85;3.42;;;18.70;99.90;;;;;;4998009;28;20677;-91
2023/07/03 08:44:50;;;;;;;13.80;3.58;;;18.30;99.90;;;;;;4998369;28;20640;-95
2023/07/03 08:47:20;;;;;;;23.85;4.57;;;18.00;99.90;;;;;;4998501;28;20198;-91
2023/07/03 08:49:47;;;;;;;17.67;4.20;;;17.90;99.90;;;;;;5014314;28;20171;-93
2023/07/03 08:52:19;;;;;;;16.27;3.75;;;17.90;99.90;;;;;;4998704;28;20183;-93
2023/07/03 08:54:48;;;;;;;12.45;4.15;;;17.90;99.90;;;;;;4998658;28;20171;-95
2023/07/03 08:57:15;;;;;;;21.10;4.05;;;17.90;99.90;;;;;;4998984;28;20281;-95
2023/07/03 08:59:40;;;;;;;16.60;4.13;;;17.80;99.90;;;;;;5001843;28;20179;-94
2023/07/03 09:02:38;;;;;;;13.82;4.07;;;17.80;99.90;;;;;;5017012;28;20183;-95
2023/07/03 09:05:41;;;;;;;14.27;4.10;;;17.80;99.90;;;;;;4985245;28;20183;-96
2023/07/03 09:08:12;;;;;;;20.05;3.92;;;17.80;99.90;;;;;;5018878;28;20262;-96
2023/07/03 09:10:46;;;;;;;19.02;3.88;;;17.80;99.90;;;;;;4999061;28;20217;-96
2023/07/03 09:13:17;;;;;;;17.08;3.65;;;18.00;99.90;;;;;;5017573;28;20163;-96
2023/07/03 09:15:46;;;;;;;13.65;3.90;;;18.20;99.90;;;;;;4997543;28;20191;-96
2023/07/03 09:18:19;;;;;;;12.80;3.53;;;18.20;99.90;;;;;;5000845;28;20302;-96
2023/07/03 09:20:46;;;;;;;16.35;4.25;;;18.20;99.90;;;;;;4998701;28;20225;-95
2023/07/03 09:23:55;;;;;;;15.15;4.07;;;18.20;99.90;;;;;;5014615;28;20214;-96
2023/07/03 09:26:37;;;;;;;18.58;4.40;;;18.20;99.90;;;;;;5004766;28;20624;-96
2023/07/03 09:29:05;;;;;;;19.40;4.45;;;18.20;99.90;;;;;;5001387;28;20273;-96
2023/07/03 09:31:31;;;;;;;14.98;3.85;;;18.20;99.90;;;;;;4997248;28;20610;-96
2023/07/03 09:33:57;;;;;;;16.63;4.20;;;18.10;99.90;;;;;;5013480;28;20236;-91
2023/07/03 09:36:35;;;;;;;17.17;3.97;;;18.20;99.90;;;;;;5013518;28;20207;-93
2023/07/03 09:39:10;;;;;;;15.43;4.13;;;18.30;99.90;;;;;;4996907;28;20206;-92
2023/07/03 09:41:36;;;;;;;13.82;4.07;;;18.50;99.90;;;;;;4996959;28;20171;-95
2023/07/03 09:44:22;;;;;;;16.50;4.90;;;18.40;99.90;;;;;;4997120;28;20187;-93
2023/07/03 09:46:48;;;;;;;13.23;4.15;;;18.40;99.90;;;;;;4996972;28;20217;-92
2023/07/03 09:49:28;;;;;;;12.60;4.03;;;18.50;99.90;;;;;;4996999;28;20310;-91
2023/07/03 09:51:57;;;;;;;15.93;3.80;;;18.70;99.90;;;;;;5014394;28;20246;-92
2023/07/03 09:54:27;;;;;;;17.98;3.63;;;18.90;99.90;;;;;;4997005;28;20207;-91
2023/07/03 09:56:54;;;;;;;16.65;4.13;;;19.20;99.90;;;;;;4996670;28;20203;-92
2023/07/03 09:59:20;;;;;;;12.48;3.60;;;19.40;99.90;;;;;;5013383;28;20187;-93
2023/07/03 10:01:47;;;;;;;16.13;3.95;;;19.60;99.90;;;;;;5013470;28;20179;-92
2023/07/03 10:04:17;;;;;;;14.18;4.20;;;19.70;99.90;;;;;;4996660;28;20190;-94
2023/07/03 10:07:03;;;;;;;14.50;3.95;;;20.00;99.90;;;;;;5012867;28;20175;-92
2023/07/03 10:09:32;;;;;;;18.25;3.85;;;20.00;99.90;;;;;;4996818;28;20606;-93
2023/07/03 10:12:09;;;;;;;13.43;3.70;;;20.20;99.90;;;;;;5014361;28;20183;-96
2023/07/03 10:14:48;;;;;;;13.50;3.83;;;20.50;99.90;;;;;;4996807;28;20217;-92
2023/07/03 10:17:15;;;;;;;13.95;3.97;;;20.40;99.90;;;;;;5014532;28;20202;-93
2023/07/03 10:19:49;;;;;;;18.27;3.67;;;20.20;99.90;;;;;;5013148;28;20189;-93
2023/07/03 10:22:16;;;;;;;11.05;3.33;;;20.10;99.90;;;;;;4996729;28;20174;-92
2023/07/03 10:24:43;;;;;;;9.95;3.33;;;20.40;99.90;;;;;;4996689;28;20246;-91
2023/07/03 10:27:09;;;;;;;13.95;3.53;;;20.40;99.90;;;;;;4996689;28;20235;-93
2023/07/03 10:29:49;;;;;;;10.95;3.20;;;20.60;99.90;;;;;;5013417;28;20233;-93
2023/07/03 10:32:17;;;;;;;10.65;3.40;;;20.90;99.90;;;;;;4996941;28;20181;-89
2023/07/03 10:35:08;;;;;;;13.35;2.88;;;21.10;99.90;;;;;;5016298;28;20342;-92
2023/07/03 10:37:50;;;;;;;10.68;3.40;;;21.20;98.70;;;;;;5016178;28;20211;-93
2023/07/03 10:40:22;;;;;;;12.25;3.17;;;21.20;99.40;;;;;;5000067;28;20230;-90
2023/07/03 10:42:59;;;;;;;14.38;3.53;;;21.10;97.70;;;;;;5017434;28;20183;-90
2023/07/03 10:45:26;;;;;;;15.00;3.40;;;20.90;98.80;;;;;;5017467;28;20260;-92
2023/07/03 10:48:07;;;;;;;16.38;3.45;;;20.60;99.60;;;;;;5009942;28;20182;-90
2023/07/03 10:50:46;;;;;;;13.55;4.07;;;20.60;99.30;;;;;;5016362;28;20183;-92
2023/07/03 10:53:27;;;;;;;15.50;3.30;;;20.60;99.30;;;;;;4999950;28;20175;-93
2023/07/03 10:56:05;;;;;;;14.73;3.58;;;20.50;98.90;;;;;;5017151;28;20156;-90
2023/07/03 10:58:49;;;;;;;15.55;3.92;;;20.10;97.70;;;;;;4999661;28;20728;-91
2023/07/03 11:01:53;;;;;;;12.05;3.75;;;19.80;99.00;;;;;;5016114;28;20629;-90
2023/07/03 11:04:51;;;;;;;8.52;3.45;;;19.60;99.90;;;;;;4993430;28;20190;-89
2023/07/03 11:07:53;;;;;;;13.40;3.47;;;19.40;99.80;;;;;;5004219;28;20241;-90
2023/07/03 11:10:57;;;;;;;14.55;3.85;;;19.30;99.90;;;;;;4999023;28;20533;-90
2023/07/03 11:13:58;;;;;;;13.15;3.35;;;19.10;99.90;;;;;;4995083;28;20191;-88
2023/07/03 11:16:33;;;;;;;13.05;3.42;;;18.80;99.90;;;;;;5004599;28;20253;-92
2023/07/03 11:19:05;;;;;;;11.23;3.38;;;18.50;99.60;;;;;;5016710;28;20209;-89
2023/07/03 11:21:42;;;;;;;12.45;3.28;;;18.30;99.90;;;;;;4998935;28;20171;-90
2023/07/03 11:24:13;;;;;;;15.70;3.20;;;18.10;99.90;;;;;;4998981;28;20179;-89
2023/07/03 11:26:41;;;;;;;10.93;3.35;;;17.90;99.90;;;;;;5015349;28;20649;-90
2023/07/03 11:29:09;;;;;;;11.45;3.00;;;17.90;99.90;;;;;;5015134;28;20219;-91
2023/07/03 11:31:39;;;;;;;14.40;3.25;;;17.80;99.90;;;;;;4999020;28;20500;-89
2023/07/03 11:34:07;;;;;;;12.98;3.10;;;17.70;99.90;;;;;;4999010;28;20179;-90
2023/07/03 11:36:46;;;;;;;13.13;3.50;;;17.60;99.90;;;;;;4998678;28;20175;-89
2023/07/03 11:39:19;;;;;;;16.00;3.20;;;17.60;99.90;;;;;;4998844;28;20199;-91
2023/07/03 11:41:53;;;;;;;18.20;3.63;;;17.60;99.90;;;;;;4998570;28;20172;-91
2023/07/03 11:44:40;;;;;;;14.63;3.63;;;17.70;99.90;;;;;;4998362;28;20564;-90
2023/07/03 11:47:10;;;;;;;13.70;3.80;;;17.80;99.90;;;;;;5008452;28;20187;-89
2023/07/03 11:49:52;;;;;;;17.13;3.53;;;17.90;99.90;;;;;;4998408;28;20525;-89
2023/07/03 11:52:36;;;;;;;13.63;3.35;;;18.10;99.90;;;;;;5016221;28;20382;-90
2023/07/03 11:55:05;;;;;;;12.90;3.45;;;18.40;99.90;;;;;;5014777;28;20271;-89
2023/07/03 11:57:37;;;;;;;10.27;3.42;;;18.60;99.90;;;;;;5014453;28;20210;-91
2023/07/03 12:00:20;;;;;;;11.25;3.15;;;18.80;99.90;;;;;;4998557;28;20207;-91
2023/07/03 12:02:48;;;;;;;14.18;3.70;;;19.20;99.90;;;;;;5014832;28;20622;-91
2023/07/03 12:05:52;;;;;;;13.73;3.05;;;19.50;99.90;;;;;;4998293;28;20246;-91
2023/07/03 12:08:17;;;;;;;7.60;2.67;;;19.90;99.90;;;;;;4998096;28;20405;-87
2023/07/03 12:10:49;;;;;;;9.07;3.03;;;20.30;99.90;;;;;;4997889;28;20183;-89
2023/07/03 12:13:40;;;;;;;7.78;2.70;;;20.30;99.90;;;;;;5015734;28;20163;-88
2023/07/03 12:16:18;;;;;;;9.55;3.33;;;20.20;99.90;;;;;;4998153;28;20174;-90
2023/07/03 12:18:44;;;;;;;11.02;2.97;;;20.20;99.90;;;;;;5014252;28;20686;-88
2023/07/03 12:21:12;;;;;;;8.77;2.88;;;20.10;99.90;;;;;;5015671;28;20172;-89
2023/07/03 12:23:44;;;;;;;9.40;2.92;;;20.10;99.90;;;;;;4997633;28;20190;-89
2023/07/03 12:26:18;;;;;;;10.63;3.20;;;20.10;99.70;;;;;;4997782;28;20171;-88
2023/07/03 12:28:44;;;;;;;12.50;3.53;;;20.30;99.50;;;;;;5015777;28;20194;-88
2023/07/03 12:31:21;;;;;;;9.57;2.75;;;20.40;99.00;;;;;;5034888;28;20179;-88
2023/07/03 12:33:49;;;;;;;7.93;2.40;;;20.60;99.60;;;;;;5034932;28;20167;-89
2023/07/03 12:36:30;;;;;;;14.70;3.25;;;20.80;99.20;;;;;;5016969;28;20182;-86
2023/07/03 12:38:58;;;;;;;12.07;3.15;;;20.90;99.80;;;;;;5034702;28;20297;-89
2023/07/03 12:41:32;;;;;;;15.48;3.50;;;21.10;98.70;;;;;;5017137;28;20224;-89
2023/07/03 12:44:00;;;;;;;9.20;2.95;;;21.10;98.20;;;;;;5034673;28;20613;-89
2023/07/03 12:46:32;;;;;;;12.30;3.13;;;20.80;98.70;;;;;;5017159;28;20579;-90
2023/07/03 12:49:15;;;;;;;10.27;3.28;;;20.50;99.00;;;;;;5016682;28;20206;-91
2023/07/03 12:51:49;;;;;;;10.38;2.92;;;20.00;98.40;;;;;;5017158;28;20183;-89
2023/07/03 12:54:15;;;;;;;10.93;3.10;;;19.70;99.30;;;;;;5016994;28;20285;-88